»·PEaware :: WAT169 KSFO-KSNA

WAT169 :: KSFO-KSNA

FLIGHT INFORMATION

Flight Status: Arrived
Operator:
Walker Air Transport
More flights by this operator :: More flights under this callsign
Pilot: Marty P. (27464)
Aircraft: DASSAULT AVIATION FALCON 50
(FA50)
More flights by this aircraft type
Origin: KSFO San Francisco Intl
United States
Destination: KSNA John Wayne-Orange Co
United States
More flights between these airports :: More routes between these airports
Route: OFFSH2 MCKEY TILLT TILLT2
File this flight plan on PilotEdge
Remarks: Shhhhh P
Altitude:
(Current/Filed)
34,000ft
Speed:
(Current/Filed)
480kts
Departed: 29-Nov-20 09:37 PM
Arrived: 29-Nov-20 10:40 PM
Distance/Time
Traveled:
323nm/1:03
Distance/Time
To Go:
Arrived

Flight Plot

Page will automatically refresh every two minutes.

Flight plan parsing failed; only flown route is shown


Map Options




Map Legend


Flown Route
Filed Route
Departure Airport
Arrival Airport
Navaid (VOR, NDB)
Fix

Horizontal Profiles

Position Reports

Time Latitude Longitude Heading Altitude Ground
Speed
29-Nov-20 21:26 37.627198 -122.380314 28 16ft 0kts
29-Nov-20 21:27 37.627865 -122.379971 230 14ft 1kts
29-Nov-20 21:28 37.625994 -122.381185 202 19ft 0kts
29-Nov-20 21:29 37.625972 -122.381197 202 19ft 0kts
29-Nov-20 21:30 37.624669 -122.379998 118 24ft 18kts
29-Nov-20 21:31 37.621823 -122.373215 118 13ft 21kts
29-Nov-20 21:32 37.618975 -122.366428 118 10ft 24kts
29-Nov-20 21:33 37.615733 -122.358701 118 7ft 17kts
29-Nov-20 21:34 37.614531 -122.356758 187 7ft 0kts
29-Nov-20 21:35 37.614583 -122.359629 298 7ft 39kts
29-Nov-20 21:36 37.631963 -122.403008 298 2378ft 186kts
29-Nov-20 21:37 37.661295 -122.473907 298 2999ft 237kts
29-Nov-20 21:38 37.635617 -122.540109 216 3329ft 267kts
29-Nov-20 21:39 37.580017 -122.589282 216 9446ft 256kts
29-Nov-20 21:40 37.512995 -122.648098 216 12200ft 362kts
29-Nov-20 21:41 37.418740 -122.680724 178 16952ft 376kts
29-Nov-20 21:42 37.312563 -122.657645 171 20308ft 399kts
29-Nov-20 21:43 37.202232 -122.628023 171 23113ft 415kts
29-Nov-20 21:44 37.087739 -122.597154 172 25518ft 427kts
29-Nov-20 21:45 36.971837 -122.569813 177 28183ft 421kts
29-Nov-20 21:46 36.857105 -122.544313 174 30502ft 423kts
29-Nov-20 21:47 36.742987 -122.514839 176 32789ft 417kts
29-Nov-20 21:48 36.629736 -122.485617 177 34289ft 428kts
29-Nov-20 21:49 36.507542 -122.454238 176 34273ft 468kts
29-Nov-20 21:50 36.386017 -122.377761 141 34266ft 531kts
29-Nov-20 21:51 36.288057 -122.235740 136 34252ft 546kts
29-Nov-20 21:52 36.189433 -122.092224 137 34252ft 547kts
29-Nov-20 21:53 36.090917 -121.949592 137 34256ft 546kts
29-Nov-20 21:54 35.992352 -121.807533 137 34258ft 546kts
29-Nov-20 21:55 35.893745 -121.665981 137 34250ft 547kts
29-Nov-20 21:56 35.794250 -121.523762 137 34245ft 548kts
29-Nov-20 21:57 35.694411 -121.381645 137 34248ft 551kts
29-Nov-20 21:58 35.594150 -121.239484 137 34239ft 552kts
29-Nov-20 21:59 35.494064 -121.096916 132 34240ft 557kts
29-Nov-20 22:00 35.402855 -120.945022 144 34248ft 547kts
29-Nov-20 22:01 35.288769 -120.822266 146 34241ft 547kts
29-Nov-20 22:02 35.174559 -120.699606 145 34244ft 549kts
29-Nov-20 22:03 35.059199 -120.577704 148 34236ft 548kts
29-Nov-20 22:04 34.935591 -120.471606 154 34239ft 542kts
29-Nov-20 22:05 34.809565 -120.370518 154 34243ft 544kts
29-Nov-20 22:06 34.685188 -120.270382 155 34231ft 544kts
29-Nov-20 22:07 34.559527 -120.169823 155 34235ft 545kts
29-Nov-20 22:08 34.432693 -120.068704 155 34237ft 547kts
29-Nov-20 22:09 34.305370 -119.967570 156 34240ft 548kts
29-Nov-20 22:10 34.177463 -119.866337 155 34228ft 550kts
29-Nov-20 22:11 34.058973 -119.748374 133 33293ft 568kts
29-Nov-20 22:12 33.974790 -119.585351 124 31545ft 578kts
29-Nov-20 22:13 33.892698 -119.421950 123 28615ft 557kts
29-Nov-20 22:14 33.818527 -119.271129 122 24962ft 497kts
29-Nov-20 22:15 33.752238 -119.136983 121 21069ft 445kts
29-Nov-20 22:16 33.692289 -119.016268 121 17720ft 395kts
29-Nov-20 22:17 33.639011 -118.909291 121 14552ft 363kts
29-Nov-20 22:18 33.589373 -118.809889 120 11780ft 336kts
29-Nov-20 22:19 33.561603 -118.713794 100 10358ft 285kts
29-Nov-20 22:21 33.547115 -118.622285 100 9023ft 274kts
29-Nov-20 22:22 33.532769 -118.533605 100 9027ft 271kts
29-Nov-20 22:23 33.521078 -118.443865 92 8894ft 269kts
29-Nov-20 22:24 33.518751 -118.353280 91 7280ft 270kts
29-Nov-20 22:25 33.538348 -118.268311 69 5920ft 263kts
29-Nov-20 22:26 33.564007 -118.188714 67 5012ft 254kts
29-Nov-20 22:27 33.600855 -118.118002 56 4989ft 228kts
29-Nov-20 22:28 33.632954 -118.060387 56 4990ft 199kts
29-Nov-20 22:29 33.663759 -118.005002 56 4988ft 200kts
29-Nov-20 22:30 33.695383 -117.949642 45 4985ft 201kts
29-Nov-20 22:31 33.743672 -117.916003 27 4984ft 201kts
29-Nov-20 22:32 33.793308 -117.884639 27 4983ft 201kts
29-Nov-20 22:33 33.842915 -117.853064 27 4981ft 201kts
29-Nov-20 22:34 33.871172 -117.802782 91 4274ft 222kts
29-Nov-20 22:35 33.828517 -117.773232 203 3322ft 217kts
29-Nov-20 22:36 33.777390 -117.804459 207 2197ft 197kts
29-Nov-20 22:36 33.741080 -117.827378 207 1419ft 153kts
29-Nov-20 22:38 33.701671 -117.852373 207 522ft 126kts
29-Nov-20 22:38 33.677304 -117.867843 208 66ft 99kts
29-Nov-20 22:40 33.669159 -117.871595 119 63ft 0kts
29-Nov-20 22:41 33.670210 -117.869797 40 63ft 11kts
29-Nov-20 22:41 33.671996 -117.868186 28 63ft 5kts
29-Nov-20 22:43 33.671783 -117.867183 14 63ft 7kts
29-Nov-20 22:43 33.671933 -117.867099 27 63ft 0kts
29-Nov-20 22:44 33.671933 -117.867099 27 63ft 0kts
29-Nov-20 22:45 33.671933 -117.867099 27 63ft 0kts
29-Nov-20 22:46 33.671933 -117.867099 27 63ft 0kts
29-Nov-20 22:47 33.671933 -117.867099 27 63ft 0kts
29-Nov-20 22:48 33.671933 -117.867099 27 63ft 0kts

Navigation Log

Ident Type
Flight plan parsing failed, navigation log unavailable